Terminal Aerodrome Forecast
Issued by NWS

Home | Current Version | Previous Version | Text Only | Print | Product List | Glossary On
Versions: 1 2 3 4 5 6 7 8 9 10 11 12 13 14
000
FTUS44 KTSA 101700 RRA
TAFBVO
TAF
KBVO 101741Z 1018/1118 13010KT P6SM SCT040 BKN120
     FM110200 13005KT P6SM SCT250
     FM111500 19008KT P6SM SCT250=

USA.gov is the U.S. government's official web portal to all federal, state and local government web resources and services.